sensor_id;sensor_type;location;lat;lon;timestamp;pressure;altitude;pressure_sealevel;temperature;humidity
44979;BME280;67464;52.438;-1.904;2023-02-01T00:00:41;100771.52;;;1.43;100.00
44979;BME280;67464;52.438;-1.904;2023-02-01T00:03:06;100768.30;;;1.68;100.00
44979;BME280;67464;52.438;-1.904;2023-02-01T00:05:31;100782.93;;;2.12;100.00
44979;BME280;67464;52.438;-1.904;2023-02-01T00:07:57;100776.63;;;1.91;100.00
44979;BME280;67464;52.438;-1.904;2023-02-01T00:10:22;100770.67;;;2.03;100.00
44979;BME280;67464;52.438;-1.904;2023-02-01T00:12:48;100776.12;;;2.41;100.00
44979;BME280;67464;52.438;-1.904;2023-02-01T00:15:14;100773.60;;;2.42;100.00
44979;BME280;67464;52.438;-1.904;2023-02-01T00:17:39;100771.79;;;2.01;100.00
44979;BME280;67464;52.438;-1.904;2023-02-01T00:20:06;100777.61;;;1.94;100.00
44979;BME280;67464;52.438;-1.904;2023-02-01T00:22:31;100778.92;;;2.16;100.00
44979;BME280;67464;52.438;-1.904;2023-02-01T00:24:57;100777.04;;;2.30;100.00
44979;BME280;67464;52.438;-1.904;2023-02-01T00:27:22;100778.80;;;2.34;100.00
44979;BME280;67464;52.438;-1.904;2023-02-01T00:29:47;100777.52;;;1.95;100.00
44979;BME280;67464;52.438;-1.904;2023-02-01T00:32:13;100775.54;;;1.86;100.00
44979;BME280;67464;52.438;-1.904;2023-02-01T00:34:38;100780.04;;;1.75;100.00
44979;BME280;67464;52.438;-1.904;2023-02-01T00:37:03;100773.82;;;1.85;100.00
44979;BME280;67464;52.438;-1.904;2023-02-01T00:39:28;100769.12;;;2.22;100.00
44979;BME280;67464;52.438;-1.904;2023-02-01T00:41:54;100770.08;;;2.59;100.00
44979;BME280;67464;52.438;-1.904;2023-02-01T00:44:20;100780.09;;;1.70;100.00
44979;BME280;67464;52.438;-1.904;2023-02-01T00:46:45;100779.80;;;1.87;100.00
44979;BME280;67464;52.438;-1.904;2023-02-01T00:49:11;100769.17;;;2.16;100.00
44979;BME280;67464;52.438;-1.904;2023-02-01T00:51:36;100772.62;;;2.26;100.00
44979;BME280;67464;52.438;-1.904;2023-02-01T00:54:02;100781.47;;;2.12;100.00
44979;BME280;67464;52.438;-1.904;2023-02-01T00:56:27;100769.71;;;2.40;100.00
44979;BME280;67464;52.438;-1.904;2023-02-01T00:58:52;100771.21;;;2.08;100.00
44979;BME280;67464;52.438;-1.904;2023-02-01T01:01:19;100769.56;;;1.83;100.00
44979;BME280;67464;52.438;-1.904;2023-02-01T01:03:45;100771.61;;;1.86;100.00
44979;BME280;67464;52.438;-1.904;2023-02-01T01:06:11;100767.37;;;2.14;100.00
44979;BME280;67464;52.438;-1.904;2023-02-01T01:08:34;100773.23;;;2.15;100.00
44979;BME280;67464;52.438;-1.904;2023-02-01T01:11:04;100771.40;;;2.39;100.00
44979;BME280;67464;52.438;-1.904;2023-02-01T01:13:26;100775.61;;;1.97;100.00
44979;BME280;67464;52.438;-1.904;2023-02-01T01:15:51;100776.95;;;2.46;100.00
44979;BME280;67464;52.438;-1.904;2023-02-01T01:18:17;100787.27;;;2.28;100.00
44979;BME280;67464;52.438;-1.904;2023-02-01T01:20:43;100792.78;;;2.18;100.00
44979;BME280;67464;52.438;-1.904;2023-02-01T01:23:08;100784.00;;;2.37;100.00
44979;BME280;67464;52.438;-1.904;2023-02-01T01:25:37;100787.54;;;2.24;100.00
44979;BME280;67464;52.438;-1.904;2023-02-01T01:28:00;100784.59;;;2.39;100.00
44979;BME280;67464;52.438;-1.904;2023-02-01T01:30:26;100775.16;;;2.39;100.00
44979;BME280;67464;52.438;-1.904;2023-02-01T01:32:52;100781.80;;;2.54;100.00
44979;BME280;67464;52.438;-1.904;2023-02-01T01:35:16;100782.33;;;2.39;100.00
44979;BME280;67464;52.438;-1.904;2023-02-01T01:37:42;100783.03;;;2.79;100.00
44979;BME280;67464;52.438;-1.904;2023-02-01T01:40:10;100777.41;;;3.09;100.00
44979;BME280;67464;52.438;-1.904;2023-02-01T01:42:37;100784.37;;;3.06;100.00
44979;BME280;67464;52.438;-1.904;2023-02-01T01:45:00;100785.67;;;3.23;100.00
44979;BME280;67464;52.438;-1.904;2023-02-01T01:47:24;100779.72;;;3.11;100.00
44979;BME280;67464;52.438;-1.904;2023-02-01T01:49:50;100775.81;;;2.46;100.00
44979;BME280;67464;52.438;-1.904;2023-02-01T01:52:15;100773.60;;;2.93;100.00
44979;BME280;67464;52.438;-1.904;2023-02-01T01:54:44;100768.06;;;2.10;100.00
44979;BME280;67464;52.438;-1.904;2023-02-01T01:57:10;100762.08;;;2.43;100.00
44979;BME280;67464;52.438;-1.904;2023-02-01T01:59:31;100760.39;;;2.12;100.00
44979;BME280;67464;52.438;-1.904;2023-02-01T02:01:56;100762.19;;;2.49;100.00
44979;BME280;67464;52.438;-1.904;2023-02-01T02:04:22;100771.02;;;2.75;100.00
44979;BME280;67464;52.438;-1.904;2023-02-01T02:06:51;100763.20;;;2.30;100.00
44979;BME280;67464;52.438;-1.904;2023-02-01T02:09:13;100766.60;;;2.77;100.00
44979;BME280;67464;52.438;-1.904;2023-02-01T02:11:38;100764.13;;;2.58;100.00
44979;BME280;67464;52.438;-1.904;2023-02-01T02:14:03;100767.47;;;2.46;100.00
44979;BME280;67464;52.438;-1.904;2023-02-01T02:16:41;100771.99;;;2.44;100.00
44979;BME280;67464;52.438;-1.904;2023-02-01T02:19:01;100769.89;;;2.47;100.00
44979;BME280;67464;52.438;-1.904;2023-02-01T02:21:34;100767.78;;;2.24;100.00
44979;BME280;67464;52.438;-1.904;2023-02-01T02:23:58;100770.37;;;2.52;100.00
44979;BME280;67464;52.438;-1.904;2023-02-01T02:26:23;100771.38;;;2.59;100.00
44979;BME280;67464;52.438;-1.904;2023-02-01T02:28:49;100780.21;;;2.75;100.00
44979;BME280;67464;52.438;-1.904;2023-02-01T02:31:08;100774.05;;;3.05;100.00
44979;BME280;67464;52.438;-1.904;2023-02-01T02:33:38;100768.44;;;2.69;100.00
44979;BME280;67464;52.438;-1.904;2023-02-01T02:35:55;100778.71;;;2.90;100.00
44979;BME280;67464;52.438;-1.904;2023-02-01T02:38:22;100771.81;;;2.64;100.00
44979;BME280;67464;52.438;-1.904;2023-02-01T02:40:46;100777.00;;;2.42;100.00
44979;BME280;67464;52.438;-1.904;2023-02-01T02:43:10;100769.87;;;3.04;100.00
44979;BME280;67464;52.438;-1.904;2023-02-01T02:45:39;100765.50;;;3.01;100.00
44979;BME280;67464;52.438;-1.904;2023-02-01T02:48:02;100766.16;;;2.74;100.00
44979;BME280;67464;52.438;-1.904;2023-02-01T02:50:27;100761.42;;;2.99;100.00
44979;BME280;67464;52.438;-1.904;2023-02-01T02:52:53;100765.95;;;2.93;100.00
44979;BME280;67464;52.438;-1.904;2023-02-01T02:55:13;100758.47;;;2.23;100.00
44979;BME280;67464;52.438;-1.904;2023-02-01T02:57:41;100755.77;;;2.30;100.00
44979;BME280;67464;52.438;-1.904;2023-02-01T03:00:07;100764.56;;;2.57;100.00
44979;BME280;67464;52.438;-1.904;2023-02-01T03:02:30;100772.21;;;2.56;100.00
44979;BME280;67464;52.438;-1.904;2023-02-01T03:04:55;100768.54;;;2.69;100.00
44979;BME280;67464;52.438;-1.904;2023-02-01T03:09:47;100762.40;;;2.51;100.00
44979;BME280;67464;52.438;-1.904;2023-02-01T03:12:12;100755.99;;;2.36;100.00
44979;BME280;67464;52.438;-1.904;2023-02-01T03:14:38;100759.01;;;2.33;100.00
44979;BME280;67464;52.438;-1.904;2023-02-01T03:17:07;100759.71;;;2.58;100.00
44979;BME280;67464;52.438;-1.904;2023-02-01T03:19:31;100760.99;;;2.26;100.00
44979;BME280;67464;52.438;-1.904;2023-02-01T03:21:57;100758.69;;;2.67;100.00
44979;BME280;67464;52.438;-1.904;2023-02-01T03:24:23;100761.65;;;2.43;100.00
44979;BME280;67464;52.438;-1.904;2023-02-01T03:26:47;100757.98;;;2.54;100.00
44979;BME280;67464;52.438;-1.904;2023-02-01T03:29:12;100756.15;;;2.52;100.00
44979;BME280;67464;52.438;-1.904;2023-02-01T03:31:34;100749.93;;;1.94;100.00
44979;BME280;67464;52.438;-1.904;2023-02-01T03:34:00;100750.65;;;2.20;100.00
44979;BME280;67464;52.438;-1.904;2023-02-01T03:36:29;100749.47;;;2.31;100.00
44979;BME280;67464;52.438;-1.904;2023-02-01T03:38:57;100746.67;;;2.22;100.00
44979;BME280;67464;52.438;-1.904;2023-02-01T03:41:19;100747.96;;;1.95;100.00
44979;BME280;67464;52.438;-1.904;2023-02-01T03:43:50;100750.94;;;2.28;100.00
44979;BME280;67464;52.438;-1.904;2023-02-01T03:46:12;100745.00;;;2.20;100.00
44979;BME280;67464;52.438;-1.904;2023-02-01T03:48:33;100738.57;;;2.03;100.00
44979;BME280;67464;52.438;-1.904;2023-02-01T03:51:01;100739.55;;;2.07;100.00
44979;BME280;67464;52.438;-1.904;2023-02-01T03:53:25;100734.55;;;2.25;100.00
44979;BME280;67464;52.438;-1.904;2023-02-01T03:55:51;100729.75;;;2.50;100.00
44979;BME280;67464;52.438;-1.904;2023-02-01T03:58:17;100729.57;;;2.35;100.00
44979;BME280;67464;52.438;-1.904;2023-02-01T04:00:43;100723.84;;;2.07;100.00
44979;BME280;67464;52.438;-1.904;2023-02-01T04:03:06;100717.16;;;1.88;100.00
44979;BME280;67464;52.438;-1.904;2023-02-01T04:05:31;100706.93;;;2.00;100.00
44979;BME280;67464;52.438;-1.904;2023-02-01T04:07:56;100714.63;;;2.25;100.00
44979;BME280;67464;52.438;-1.904;2023-02-01T04:10:22;100714.84;;;1.53;100.00
44979;BME280;67464;52.438;-1.904;2023-02-01T04:12:48;100707.62;;;1.92;100.00
44979;BME280;67464;52.438;-1.904;2023-02-01T04:15:13;100706.78;;;1.76;100.00
44979;BME280;67464;52.438;-1.904;2023-02-01T04:17:38;100712.84;;;1.92;100.00
44979;BME280;67464;52.438;-1.904;2023-02-01T04:20:04;100713.30;;;1.56;100.00
44979;BME280;67464;52.438;-1.904;2023-02-01T04:22:29;100723.20;;;1.57;100.00
44979;BME280;67464;52.438;-1.904;2023-02-01T04:24:54;100716.79;;;1.89;100.00
44979;BME280;67464;52.438;-1.904;2023-02-01T04:27:20;100716.79;;;1.86;100.00
44979;BME280;67464;52.438;-1.904;2023-02-01T04:29:45;100725.87;;;1.98;100.00
44979;BME280;67464;52.438;-1.904;2023-02-01T04:32:11;100731.43;;;2.31;100.00
44979;BME280;67464;52.438;-1.904;2023-02-01T04:34:36;100725.55;;;2.08;100.00
44979;BME280;67464;52.438;-1.904;2023-02-01T04:37:01;100728.99;;;2.01;100.00
44979;BME280;67464;52.438;-1.904;2023-02-01T04:39:26;100730.06;;;2.37;100.00
44979;BME280;67464;52.438;-1.904;2023-02-01T04:41:52;100740.57;;;1.80;100.00
44979;BME280;67464;52.438;-1.904;2023-02-01T04:44:18;100731.02;;;1.90;100.00
44979;BME280;67464;52.438;-1.904;2023-02-01T04:46:44;100728.65;;;1.89;100.00
44979;BME280;67464;52.438;-1.904;2023-02-01T04:49:09;100727.36;;;1.41;100.00
44979;BME280;67464;52.438;-1.904;2023-02-01T04:51:34;100724.95;;;2.42;100.00
44979;BME280;67464;52.438;-1.904;2023-02-01T04:53:59;100723.77;;;1.96;100.00
44979;BME280;67464;52.438;-1.904;2023-02-01T04:56:25;100723.55;;;2.17;100.00
44979;BME280;67464;52.438;-1.904;2023-02-01T04:58:50;100722.96;;;1.98;100.00
44979;BME280;67464;52.438;-1.904;2023-02-01T05:01:15;100717.22;;;2.07;100.00
44979;BME280;67464;52.438;-1.904;2023-02-01T05:03:41;100726.18;;;1.68;100.00
44979;BME280;67464;52.438;-1.904;2023-02-01T05:06:06;100714.34;;;1.67;100.00
44979;BME280;67464;52.438;-1.904;2023-02-01T05:08:32;100708.93;;;2.07;100.00
44979;BME280;67464;52.438;-1.904;2023-02-01T05:10:58;100708.07;;;1.85;100.00
44979;BME280;67464;52.438;-1.904;2023-02-01T05:13:23;100705.41;;;1.70;100.00
44979;BME280;67464;52.438;-1.904;2023-02-01T05:15:50;100711.83;;;1.74;100.00
44979;BME280;67464;52.438;-1.904;2023-02-01T05:18:14;100707.18;;;1.60;100.00
44979;BME280;67464;52.438;-1.904;2023-02-01T05:20:40;100699.97;;;1.85;100.00
44979;BME280;67464;52.438;-1.904;2023-02-01T05:23:05;100699.55;;;1.97;100.00
44979;BME280;67464;52.438;-1.904;2023-02-01T05:25:31;100696.73;;;1.78;100.00
44979;BME280;67464;52.438;-1.904;2023-02-01T05:27:56;100701.50;;;2.03;100.00
44979;BME280;67464;52.438;-1.904;2023-02-01T05:30:21;100703.55;;;1.72;100.00
44979;BME280;67464;52.438;-1.904;2023-02-01T05:32:49;100701.22;;;1.65;100.00
44979;BME280;67464;52.438;-1.904;2023-02-01T05:35:12;100702.36;;;1.72;100.00
44979;BME280;67464;52.438;-1.904;2023-02-01T05:37:38;100700.95;;;2.00;100.00
44979;BME280;67464;52.438;-1.904;2023-02-01T05:40:03;100708.86;;;1.93;100.00
44979;BME280;67464;52.438;-1.904;2023-02-01T05:42:28;100709.23;;;1.61;100.00
44979;BME280;67464;52.438;-1.904;2023-02-01T05:44:55;100711.13;;;1.97;100.00
44979;BME280;67464;52.438;-1.904;2023-02-01T05:47:19;100708.65;;;1.93;100.00
44979;BME280;67464;52.438;-1.904;2023-02-01T05:49:45;100713.04;;;1.37;100.00
44979;BME280;67464;52.438;-1.904;2023-02-01T05:52:10;100711.99;;;1.95;100.00
44979;BME280;67464;52.438;-1.904;2023-02-01T05:54:36;100707.47;;;1.93;100.00
44979;BME280;67464;52.438;-1.904;2023-02-01T05:57:01;100714.28;;;1.87;100.00
44979;BME280;67464;52.438;-1.904;2023-02-01T05:59:27;100703.53;;;1.95;100.00
44979;BME280;67464;52.438;-1.904;2023-02-01T06:01:53;100700.70;;;1.59;100.00
44979;BME280;67464;52.438;-1.904;2023-02-01T06:04:18;100702.92;;;2.23;100.00
44979;BME280;67464;52.438;-1.904;2023-02-01T06:06:44;100702.43;;;1.78;100.00
44979;BME280;67464;52.438;-1.904;2023-02-01T06:09:09;100697.70;;;2.03;100.00
44979;BME280;67464;52.438;-1.904;2023-02-01T06:11:35;100698.98;;;1.74;100.00
44979;BME280;67464;52.438;-1.904;2023-02-01T06:14:00;100697.70;;;1.55;100.00
44979;BME280;67464;52.438;-1.904;2023-02-01T06:16:26;100693.89;;;1.57;100.00
44979;BME280;67464;52.438;-1.904;2023-02-01T06:18:51;100692.42;;;1.49;100.00
44979;BME280;67464;52.438;-1.904;2023-02-01T06:21:16;100690.36;;;1.68;100.00
44979;BME280;67464;52.438;-1.904;2023-02-01T06:23:42;100688.17;;;1.79;100.00
44979;BME280;67464;52.438;-1.904;2023-02-01T06:26:09;100696.11;;;1.91;100.00
44979;BME280;67464;52.438;-1.904;2023-02-01T06:28:34;100705.80;;;1.71;100.00
44979;BME280;67464;52.438;-1.904;2023-02-01T06:31:03;100703.69;;;1.85;100.00
44979;BME280;67464;52.438;-1.904;2023-02-01T06:33:25;100714.02;;;1.42;100.00
44979;BME280;67464;52.438;-1.904;2023-02-01T06:35:56;100707.65;;;1.82;100.00
44979;BME280;67464;52.438;-1.904;2023-02-01T06:38:16;100710.49;;;1.48;100.00
44979;BME280;67464;52.438;-1.904;2023-02-01T06:40:41;100702.82;;;1.82;100.00
44979;BME280;67464;52.438;-1.904;2023-02-01T06:43:07;100711.45;;;1.99;100.00
44979;BME280;67464;52.438;-1.904;2023-02-01T06:45:32;100709.95;;;2.04;100.00
44979;BME280;67464;52.438;-1.904;2023-02-01T06:47:58;100708.89;;;1.98;100.00
44979;BME280;67464;52.438;-1.904;2023-02-01T06:50:23;100716.00;;;1.61;100.00
44979;BME280;67464;52.438;-1.904;2023-02-01T06:52:48;100719.04;;;1.49;100.00
44979;BME280;67464;52.438;-1.904;2023-02-01T06:55:14;100714.06;;;1.82;100.00
44979;BME280;67464;52.438;-1.904;2023-02-01T06:57:39;100704.75;;;2.00;100.00
44979;BME280;67464;52.438;-1.904;2023-02-01T07:00:06;100714.04;;;2.21;100.00
44979;BME280;67464;52.438;-1.904;2023-02-01T07:02:30;100715.79;;;1.88;100.00
44979;BME280;67464;52.438;-1.904;2023-02-01T07:04:56;100712.29;;;1.88;100.00
44979;BME280;67464;52.438;-1.904;2023-02-01T07:07:21;100696.64;;;1.91;100.00
44979;BME280;67464;52.438;-1.904;2023-02-01T07:09:47;100712.59;;;1.75;100.00
44979;BME280;67464;52.438;-1.904;2023-02-01T07:12:11;100700.23;;;1.97;100.00
44979;BME280;67464;52.438;-1.904;2023-02-01T07:14:37;100699.24;;;1.71;100.00
44979;BME280;67464;52.438;-1.904;2023-02-01T07:17:03;100692.93;;;1.67;100.00
44979;BME280;67464;52.438;-1.904;2023-02-01T07:19:28;100697.39;;;1.68;100.00
44979;BME280;67464;52.438;-1.904;2023-02-01T07:21:53;100698.30;;;1.57;100.00
44979;BME280;67464;52.438;-1.904;2023-02-01T07:24:19;100691.36;;;2.11;100.00
44979;BME280;67464;52.438;-1.904;2023-02-01T07:26:45;100686.34;;;2.19;100.00
44979;BME280;67464;52.438;-1.904;2023-02-01T07:29:10;100676.57;;;1.88;100.00
44979;BME280;67464;52.438;-1.904;2023-02-01T07:31:35;100678.89;;;1.93;100.00
44979;BME280;67464;52.438;-1.904;2023-02-01T07:34:00;100679.03;;;1.80;100.00
44979;BME280;67464;52.438;-1.904;2023-02-01T07:36:26;100691.77;;;2.07;100.00
44979;BME280;67464;52.438;-1.904;2023-02-01T07:38:51;100688.11;;;2.09;100.00
44979;BME280;67464;52.438;-1.904;2023-02-01T07:41:17;100682.90;;;1.76;100.00
44979;BME280;67464;52.438;-1.904;2023-02-01T07:43:43;100674.65;;;1.84;100.00
44979;BME280;67464;52.438;-1.904;2023-02-01T07:46:09;100676.67;;;1.81;100.00
44979;BME280;67464;52.438;-1.904;2023-02-01T07:48:33;100664.58;;;1.94;100.00
44979;BME280;67464;52.438;-1.904;2023-02-01T07:50:59;100675.15;;;2.26;100.00
44979;BME280;67464;52.438;-1.904;2023-02-01T07:53:31;100675.20;;;2.23;100.00
44979;BME280;67464;52.438;-1.904;2023-02-01T07:55:50;100659.48;;;1.79;100.00
44979;BME280;67464;52.438;-1.904;2023-02-01T07:58:15;100676.13;;;2.07;100.00
44979;BME280;67464;52.438;-1.904;2023-02-01T08:00:41;100676.57;;;1.92;100.00
44979;BME280;67464;52.438;-1.904;2023-02-01T08:03:06;100680.06;;;2.39;100.00
44979;BME280;67464;52.438;-1.904;2023-02-01T08:05:47;100684.31;;;2.55;100.00
44979;BME280;67464;52.438;-1.904;2023-02-01T08:07:58;100677.47;;;2.14;100.00
44979;BME280;67464;52.438;-1.904;2023-02-01T08:10:23;100675.85;;;2.35;100.00
44979;BME280;67464;52.438;-1.904;2023-02-01T08:12:48;100670.53;;;2.04;100.00
44979;BME280;67464;52.438;-1.904;2023-02-01T08:15:14;100684.15;;;2.74;100.00
44979;BME280;67464;52.438;-1.904;2023-02-01T08:17:39;100685.71;;;1.91;100.00
44979;BME280;67464;52.438;-1.904;2023-02-01T08:20:05;100679.79;;;2.14;100.00
44979;BME280;67464;52.438;-1.904;2023-02-01T08:22:31;100687.65;;;2.36;100.00
44979;BME280;67464;52.438;-1.904;2023-02-01T08:24:55;100690.82;;;2.40;100.00
44979;BME280;67464;52.438;-1.904;2023-02-01T08:27:20;100702.49;;;2.88;100.00
44979;BME280;67464;52.438;-1.904;2023-02-01T08:29:45;100701.92;;;2.72;100.00
44979;BME280;67464;52.438;-1.904;2023-02-01T08:32:11;100697.14;;;2.64;100.00
44979;BME280;67464;52.438;-1.904;2023-02-01T08:34:37;100702.58;;;3.22;100.00
44979;BME280;67464;52.438;-1.904;2023-02-01T08:37:03;100701.29;;;3.54;100.00
44979;BME280;67464;52.438;-1.904;2023-02-01T08:39:28;100694.52;;;3.75;100.00
44979;BME280;67464;52.438;-1.904;2023-02-01T08:41:54;100701.73;;;3.50;100.00
44979;BME280;67464;52.438;-1.904;2023-02-01T08:44:20;100706.29;;;4.05;100.00
44979;BME280;67464;52.438;-1.904;2023-02-01T08:46:45;100713.49;;;3.59;100.00
44979;BME280;67464;52.438;-1.904;2023-02-01T08:49:11;100711.02;;;3.86;100.00
44979;BME280;67464;52.438;-1.904;2023-02-01T08:51:37;100700.10;;;3.44;100.00
44979;BME280;67464;52.438;-1.904;2023-02-01T08:54:02;100726.98;;;3.49;100.00
44979;BME280;67464;52.438;-1.904;2023-02-01T08:56:28;100723.77;;;4.11;100.00
44979;BME280;67464;52.438;-1.904;2023-02-01T08:58:53;100727.01;;;4.13;100.00
44979;BME280;67464;52.438;-1.904;2023-02-01T09:01:19;100738.14;;;4.00;100.00
44979;BME280;67464;52.438;-1.904;2023-02-01T09:03:45;100736.15;;;4.23;100.00
44979;BME280;67464;52.438;-1.904;2023-02-01T09:06:12;100738.11;;;4.74;100.00
44979;BME280;67464;52.438;-1.904;2023-02-01T09:08:37;100734.42;;;3.98;100.00
44979;BME280;67464;52.438;-1.904;2023-02-01T09:11:02;100744.25;;;5.09;98.89
44979;BME280;67464;52.438;-1.904;2023-02-01T09:13:26;100743.61;;;5.61;92.78
44979;BME280;67464;52.438;-1.904;2023-02-01T09:15:52;100745.40;;;6.76;79.70
44979;BME280;67464;52.438;-1.904;2023-02-01T09:18:18;100737.73;;;7.15;71.86
44979;BME280;67464;52.438;-1.904;2023-02-01T09:20:43;100745.80;;;8.83;61.76
44979;BME280;67464;52.438;-1.904;2023-02-01T09:23:10;100737.77;;;10.82;55.20
44979;BME280;67464;52.438;-1.904;2023-02-01T09:25:37;100746.72;;;10.63;52.95
44979;BME280;67464;52.438;-1.904;2023-02-01T09:28:00;100746.25;;;11.38;49.24
44979;BME280;67464;52.438;-1.904;2023-02-01T09:30:26;100747.84;;;11.91;47.46
44979;BME280;67464;52.438;-1.904;2023-02-01T09:32:51;100750.79;;;10.83;50.13
44979;BME280;67464;52.438;-1.904;2023-02-01T09:35:17;100746.59;;;11.00;48.46
44979;BME280;67464;52.438;-1.904;2023-02-01T09:37:43;100749.10;;;11.50;48.73
44979;BME280;67464;52.438;-1.904;2023-02-01T09:40:12;100754.40;;;11.18;47.98
44979;BME280;67464;52.438;-1.904;2023-02-01T09:42:44;100754.84;;;11.13;47.69
44979;BME280;67464;52.438;-1.904;2023-02-01T09:45:10;100746.54;;;10.67;49.49
44979;BME280;67464;52.438;-1.904;2023-02-01T09:47:26;100751.79;;;12.81;45.01
44979;BME280;67464;52.438;-1.904;2023-02-01T09:49:56;100750.10;;;12.55;44.22
44979;BME280;67464;52.438;-1.904;2023-02-01T09:52:20;100754.45;;;12.75;43.41
44979;BME280;67464;52.438;-1.904;2023-02-01T09:54:46;100755.31;;;12.70;42.33
44979;BME280;67464;52.438;-1.904;2023-02-01T09:57:10;100754.54;;;13.46;41.98
44979;BME280;67464;52.438;-1.904;2023-02-01T09:59:39;100750.98;;;14.59;39.55
44979;BME280;67464;52.438;-1.904;2023-02-01T10:01:59;100753.13;;;15.38;38.48
44979;BME280;67464;52.438;-1.904;2023-02-01T10:04:25;100763.67;;;12.92;41.66
44979;BME280;67464;52.438;-1.904;2023-02-01T10:07:05;100775.77;;;11.19;45.51
44979;BME280;67464;52.438;-1.904;2023-02-01T10:09:29;100779.78;;;9.54;51.49
44979;BME280;67464;52.438;-1.904;2023-02-01T10:11:50;100770.69;;;10.98;50.30
44979;BME280;67464;52.438;-1.904;2023-02-01T10:14:12;100770.90;;;8.94;53.45
44979;BME280;67464;52.438;-1.904;2023-02-01T10:16:38;100771.44;;;7.91;63.68
44979;BME280;67464;52.438;-1.904;2023-02-01T10:19:14;100774.81;;;7.51;66.85
44979;BME280;67464;52.438;-1.904;2023-02-01T10:21:32;100777.44;;;8.97;60.97
44979;BME280;67464;52.438;-1.904;2023-02-01T10:23:59;100772.15;;;8.40;62.50
44979;BME280;67464;52.438;-1.904;2023-02-01T10:26:18;100779.90;;;7.39;69.63
44979;BME280;67464;52.438;-1.904;2023-02-01T10:28:41;100773.25;;;8.56;66.51
44979;BME280;67464;52.438;-1.904;2023-02-01T10:31:09;100783.53;;;9.44;59.77
44979;BME280;67464;52.438;-1.904;2023-02-01T10:33:34;100782.02;;;8.50;61.92
44979;BME280;67464;52.438;-1.904;2023-02-01T10:36:01;100787.86;;;9.40;61.86
44979;BME280;67464;52.438;-1.904;2023-02-01T10:38:25;100783.61;;;8.99;62.89
44979;BME280;67464;52.438;-1.904;2023-02-01T10:40:47;100778.88;;;8.40;65.39
44979;BME280;67464;52.438;-1.904;2023-02-01T10:43:12;100791.81;;;9.70;60.15
44979;BME280;67464;52.438;-1.904;2023-02-01T10:45:38;100791.68;;;8.62;63.19
44979;BME280;67464;52.438;-1.904;2023-02-01T10:48:03;100782.17;;;8.98;62.96
44979;BME280;67464;52.438;-1.904;2023-02-01T10:50:35;100788.03;;;7.88;68.68
44979;BME280;67464;52.438;-1.904;2023-02-01T10:52:58;100780.89;;;7.95;70.72
44979;BME280;67464;52.438;-1.904;2023-02-01T10:55:32;100799.75;;;7.48;74.89
44979;BME280;67464;52.438;-1.904;2023-02-01T11:00:18;100802.87;;;7.75;75.84
44979;BME280;67464;52.438;-1.904;2023-02-01T11:02:35;100801.55;;;7.26;77.43
44979;BME280;67464;52.438;-1.904;2023-02-01T11:05:01;100807.26;;;7.87;75.93
44979;BME280;67464;52.438;-1.904;2023-02-01T11:07:25;100808.13;;;7.43;77.34
44979;BME280;67464;52.438;-1.904;2023-02-01T11:09:52;100808.21;;;7.49;77.43
44979;BME280;67464;52.438;-1.904;2023-02-01T11:12:25;100800.93;;;6.98;84.78
44979;BME280;67464;52.438;-1.904;2023-02-01T11:14:41;100793.96;;;7.34;81.41
44979;BME280;67464;52.438;-1.904;2023-02-01T11:17:21;100797.64;;;7.15;83.31
44979;BME280;67464;52.438;-1.904;2023-02-01T11:19:32;100806.44;;;7.49;80.84
44979;BME280;67464;52.438;-1.904;2023-02-01T11:21:59;100804.22;;;6.76;84.52
44979;BME280;67464;52.438;-1.904;2023-02-01T11:24:26;100801.41;;;7.46;80.47
44979;BME280;67464;52.438;-1.904;2023-02-01T11:26:50;100801.65;;;7.18;80.57
44979;BME280;67464;52.438;-1.904;2023-02-01T11:29:17;100801.54;;;6.96;82.12
44979;BME280;67464;52.438;-1.904;2023-02-01T11:31:41;100805.53;;;7.98;76.06
44979;BME280;67464;52.438;-1.904;2023-02-01T11:34:10;100808.43;;;7.42;80.31
44979;BME280;67464;52.438;-1.904;2023-02-01T11:36:33;100807.90;;;6.86;83.26
44979;BME280;67464;52.438;-1.904;2023-02-01T11:39:08;100796.53;;;6.78;86.36
44979;BME280;67464;52.438;-1.904;2023-02-01T11:41:24;100807.67;;;6.76;86.73
44979;BME280;67464;52.438;-1.904;2023-02-01T11:43:54;100809.30;;;7.18;85.53
44979;BME280;67464;52.438;-1.904;2023-02-01T11:46:19;100802.28;;;7.50;81.05
44979;BME280;67464;52.438;-1.904;2023-02-01T11:48:39;100815.58;;;6.91;88.41
44979;BME280;67464;52.438;-1.904;2023-02-01T11:51:17;100812.12;;;7.19;89.26
44979;BME280;67464;52.438;-1.904;2023-02-01T11:53:41;100806.31;;;6.76;90.04
44979;BME280;67464;52.438;-1.904;2023-02-01T11:56:05;100806.85;;;7.21;87.00
44979;BME280;67464;52.438;-1.904;2023-02-01T11:58:32;100802.69;;;7.47;82.76
44979;BME280;67464;52.438;-1.904;2023-02-01T12:00:59;100803.16;;;8.85;70.74
44979;BME280;67464;52.438;-1.904;2023-02-01T12:05:47;100799.54;;;9.04;68.56
44979;BME280;67464;52.438;-1.904;2023-02-01T12:08:18;100797.56;;;8.14;70.04
44979;BME280;67464;52.438;-1.904;2023-02-01T12:10:39;100802.19;;;8.69;67.34
44979;BME280;67464;52.438;-1.904;2023-02-01T12:13:04;100800.16;;;8.92;68.13
44979;BME280;67464;52.438;-1.904;2023-02-01T12:15:28;100803.82;;;8.58;70.63
44979;BME280;67464;52.438;-1.904;2023-02-01T12:18:01;100803.45;;;8.70;69.10
44979;BME280;67464;52.438;-1.904;2023-02-01T12:20:21;100802.84;;;8.98;68.84
44979;BME280;67464;52.438;-1.904;2023-02-01T12:22:45;100805.77;;;8.27;67.48
44979;BME280;67464;52.438;-1.904;2023-02-01T12:25:18;100806.07;;;8.21;70.87
44979;BME280;67464;52.438;-1.904;2023-02-01T12:27:40;100806.48;;;7.41;75.56
44979;BME280;67464;52.438;-1.904;2023-02-01T12:32:29;100802.95;;;7.77;75.30
44979;BME280;67464;52.438;-1.904;2023-02-01T12:35:03;100801.79;;;7.59;76.79
44979;BME280;67464;52.438;-1.904;2023-02-01T12:37:17;100799.12;;;7.79;75.27
44979;BME280;67464;52.438;-1.904;2023-02-01T12:39:40;100806.28;;;7.36;77.05
44979;BME280;67464;52.438;-1.904;2023-02-01T12:42:08;100796.11;;;8.09;71.88